createdAt,value
2024-05-09T00:03:54.928Z,4.20
2024-05-09T00:08:57.464Z,4.18
2024-05-09T00:14:00.036Z,5.65
2024-05-09T00:19:02.863Z,4.68
2024-05-09T00:24:06.027Z,5.65
2024-05-09T00:29:08.712Z,4.63
2024-05-09T00:34:13.282Z,4.40
2024-05-09T00:39:15.930Z,5.25
2024-05-09T00:44:18.844Z,4.30
2024-05-09T00:49:22.899Z,7.15
2024-05-09T00:54:26.768Z,7.03
2024-05-09T00:59:30.644Z,6.53
2024-05-09T01:04:33.276Z,7.25
2024-05-09T01:09:35.792Z,5.93
2024-05-09T01:14:38.364Z,9.43
2024-05-09T01:19:41.079Z,5.95
2024-05-09T01:24:43.705Z,6.43
2024-05-09T01:29:46.206Z,7.28
2024-05-09T01:34:48.808Z,5.85
2024-05-09T01:39:52.694Z,6.53
2024-05-09T01:44:55.231Z,7.88
2024-05-09T01:49:57.882Z,9.60
2024-05-09T01:55:03.505Z,10.25
2024-05-09T02:00:10.317Z,5.28
2024-05-09T02:05:14.644Z,5.38
2024-05-09T02:10:23.472Z,6.97
2024-05-09T02:15:32.993Z,6.03
2024-05-09T02:20:38.550Z,7.45
2024-05-09T02:25:44.466Z,9.70
2024-05-09T02:30:47.237Z,13.57
2024-05-09T02:35:49.839Z,8.02
2024-05-09T02:40:52.546Z,8.65
2024-05-09T02:45:55.174Z,10.63
2024-05-09T02:50:57.796Z,10.40
2024-05-09T02:56:00.663Z,8.38
2024-05-09T03:01:03.482Z,10.88
2024-05-09T03:06:06.040Z,11.07
2024-05-09T03:11:08.751Z,9.02
2024-05-09T03:16:11.558Z,9.63
2024-05-09T03:21:14.112Z,8.05
2024-05-09T03:26:18.770Z,9.52
2024-05-09T03:31:21.373Z,8.50
2024-05-09T03:36:23.913Z,11.13
2024-05-09T03:41:26.527Z,6.13
2024-05-09T03:46:29.317Z,5.70
2024-05-09T03:51:31.986Z,4.50
2024-05-09T03:56:34.736Z,4.45
2024-05-09T04:01:37.546Z,5.72
2024-05-09T04:06:40.114Z,3.22
2024-05-09T04:11:42.846Z,4.63
2024-05-09T04:16:45.546Z,2.80
2024-05-09T04:21:48.107Z,4.60
2024-05-09T04:26:50.618Z,3.88
2024-05-09T04:31:53.448Z,2.72
2024-05-09T04:36:56.020Z,2.33
2024-05-09T04:41:58.552Z,2.47
2024-05-09T04:47:01.176Z,4.30
2024-05-09T04:52:03.874Z,3.72
2024-05-09T04:57:06.643Z,3.35
2024-05-09T05:02:09.491Z,4.47
2024-05-09T05:07:12.261Z,4.38
2024-05-09T05:12:33.769Z,2.20
2024-05-09T05:17:36.650Z,2.60
2024-05-09T05:22:40.940Z,2.05
2024-05-09T05:27:43.517Z,2.53
2024-05-09T05:32:48.711Z,3.10
2024-05-09T05:37:51.448Z,7.10
2024-05-09T05:42:54.103Z,4.57
2024-05-09T05:47:57.234Z,3.17
2024-05-09T05:52:59.961Z,3.00
2024-05-09T05:58:02.953Z,6.32
2024-05-09T06:03:06.068Z,7.20
2024-05-09T06:08:09.462Z,4.03
2024-05-09T06:13:14.706Z,3.92
2024-05-09T06:18:18.024Z,7.65
2024-05-09T06:23:20.811Z,4.50
2024-05-09T06:28:23.686Z,3.40
2024-05-09T06:33:26.658Z,3.08
2024-05-09T06:38:29.540Z,3.42
2024-05-09T06:43:32.573Z,4.72
2024-05-09T06:48:35.306Z,3.65
2024-05-09T06:53:40.294Z,7.15
2024-05-09T06:58:43.558Z,4.43
2024-05-09T07:03:46.399Z,5.18
2024-05-09T07:08:51.207Z,4.85
2024-05-09T07:13:54.994Z,5.60
2024-05-09T07:18:57.667Z,3.80
2024-05-09T07:24:00.407Z,5.53
2024-05-09T07:29:02.935Z,2.58
2024-05-09T07:34:05.530Z,2.95
2024-05-09T07:39:08.153Z,8.32
2024-05-09T07:44:10.668Z,3.17
2024-05-09T07:50:55.126Z,3.90
2024-05-09T07:59:41.038Z,5.20
2024-05-09T08:04:44.038Z,3.17
2024-05-09T08:09:46.623Z,6.28
2024-05-09T08:14:49.157Z,5.20
2024-05-09T08:19:51.742Z,2.22
2024-05-09T08:24:54.496Z,2.88
2024-05-09T08:29:57.031Z,2.63
2024-05-09T08:34:59.678Z,2.53
2024-05-09T08:40:02.513Z,2.67
2024-05-09T08:45:06.824Z,3.75
2024-05-09T08:50:23.909Z,8.38
2024-05-09T08:55:34.066Z,4.20
2024-05-09T09:00:39.586Z,3.85
2024-05-09T09:05:53.419Z,2.97
2024-05-09T09:10:59.507Z,3.38
2024-05-09T09:16:03.249Z,5.10
2024-05-09T09:21:10.896Z,2.05
2024-05-09T09:26:17.027Z,2.28
2024-05-09T09:31:20.059Z,2.47
2024-05-09T09:36:22.732Z,1.55
2024-05-09T09:41:30.344Z,2.78
2024-05-09T09:46:33.738Z,3.25
2024-05-09T09:51:37.103Z,2.42
2024-05-09T09:56:40.193Z,4.53
2024-05-09T10:01:46.513Z,3.40
2024-05-09T10:07:00.007Z,2.50
2024-05-09T10:12:12.799Z,8.30
2024-05-09T10:17:17.905Z,6.47
2024-05-09T10:22:31.166Z,3.90
2024-05-09T10:27:34.616Z,2.00
2024-05-09T10:32:41.484Z,1.73
2024-05-09T10:37:46.622Z,4.97
2024-05-09T10:42:49.321Z,2.30
2024-05-09T10:47:52.174Z,2.72
2024-05-09T10:52:54.810Z,3.97
2024-05-09T10:57:58.422Z,1.60
2024-05-09T11:03:01.246Z,3.17
2024-05-09T11:08:04.328Z,1.92
2024-05-09T11:13:07.973Z,2.15
2024-05-09T11:18:24.971Z,3.28
2024-05-09T11:23:30.977Z,3.53
2024-05-09T11:28:33.649Z,2.30
2024-05-09T11:33:40.558Z,1.88
2024-05-09T11:38:43.404Z,2.20
2024-05-09T11:43:46.052Z,1.75
2024-05-09T11:48:48.987Z,2.90
2024-05-09T11:53:51.568Z,2.38
2024-05-09T11:58:54.472Z,1.70
2024-05-09T12:03:57.335Z,2.67
2024-05-09T12:09:00.100Z,3.53
2024-05-09T12:14:02.812Z,3.05
2024-05-09T12:19:05.560Z,1.75
2024-05-09T12:24:08.159Z,2.05
2024-05-09T12:29:10.965Z,1.80
2024-05-09T12:34:16.453Z,1.58
2024-05-09T12:39:19.374Z,5.40
2024-05-09T12:44:21.919Z,4.97
2024-05-09T12:49:24.834Z,2.45
2024-05-09T12:54:27.506Z,2.55
2024-05-09T12:59:30.023Z,1.48
2024-05-09T13:04:32.812Z,1.95
2024-05-09T13:09:35.515Z,3.35
2024-05-09T13:14:38.044Z,3.40
2024-05-09T13:19:40.584Z,3.15
2024-05-09T13:24:43.256Z,4.78
2024-05-09T13:29:45.803Z,1.92
2024-05-09T13:34:48.404Z,3.60
2024-05-09T13:39:51.138Z,4.78
2024-05-09T13:44:56.547Z,2.72
2024-05-09T13:49:59.651Z,2.60
2024-05-09T13:55:02.226Z,1.23
2024-05-09T14:00:07.467Z,1.58
2024-05-09T14:05:15.144Z,1.63
2024-05-09T14:10:23.456Z,4.15
2024-05-09T14:15:31.462Z,2.35
2024-05-09T14:20:34.124Z,4.60
2024-05-09T14:25:39.778Z,3.17
2024-05-09T14:30:44.559Z,2.17
2024-05-09T14:35:47.153Z,1.92
2024-05-09T14:40:51.061Z,1.52
2024-05-09T14:45:54.196Z,2.15
2024-05-09T14:50:56.937Z,2.17
2024-05-09T14:56:00.775Z,2.33
2024-05-09T15:01:03.790Z,4.53
2024-05-09T15:06:06.842Z,5.07
2024-05-09T15:11:09.594Z,3.28
2024-05-09T15:16:12.246Z,3.67
2024-05-09T15:21:14.854Z,3.08
2024-05-09T15:26:17.561Z,2.03
2024-05-09T15:31:20.226Z,3.90
2024-05-09T15:36:22.866Z,1.50
2024-05-09T15:41:25.527Z,2.05
2024-05-09T15:46:28.178Z,4.32
2024-05-09T15:51:30.807Z,5.50
2024-05-09T15:56:33.544Z,4.50
2024-05-09T16:01:36.166Z,6.57
2024-05-09T16:06:38.839Z,4.72
2024-05-09T16:11:41.493Z,5.47
2024-05-09T16:16:44.292Z,5.80
2024-05-09T16:21:47.034Z,4.05
2024-05-09T16:26:49.642Z,4.15
2024-05-09T16:31:52.292Z,3.83
2024-05-09T16:36:54.915Z,4.78
2024-05-09T16:41:57.538Z,6.25
2024-05-09T16:47:01.571Z,6.10
2024-05-09T16:52:04.414Z,5.72
2024-05-09T16:57:07.259Z,7.30
2024-05-09T17:02:10.310Z,10.45
2024-05-09T17:07:13.368Z,8.02
2024-05-09T17:12:16.080Z,9.05
2024-05-09T17:17:21.581Z,6.85
2024-05-09T17:22:24.262Z,9.25
2024-05-09T17:27:26.996Z,9.05
2024-05-09T17:32:29.945Z,8.13
2024-05-09T17:37:32.636Z,6.07
2024-05-09T17:42:35.292Z,9.88
2024-05-09T17:47:37.957Z,11.43
2024-05-09T17:52:40.545Z,13.50
2024-05-09T17:57:43.547Z,13.98
2024-05-09T18:02:46.246Z,13.73
2024-05-09T18:07:48.886Z,14.23
2024-05-09T18:12:51.438Z,19.08
2024-05-09T18:17:54.261Z,18.00
2024-05-09T18:22:56.850Z,19.85
2024-05-09T18:27:59.538Z,19.90
2024-05-09T18:33:02.303Z,19.75
2024-05-09T18:38:05.767Z,24.67
2024-05-09T18:43:09.256Z,28.52
2024-05-09T18:48:13.411Z,24.38
2024-05-09T18:53:16.495Z,26.65
2024-05-09T18:58:19.120Z,27.60
2024-05-09T19:03:22.100Z,31.10
2024-05-09T19:08:24.965Z,35.65
2024-05-09T19:13:27.741Z,27.83
2024-05-09T19:18:31.398Z,30.63
2024-05-09T19:23:38.091Z,28.00
2024-05-09T19:28:43.379Z,25.10
2024-05-09T19:33:45.967Z,27.35
2024-05-09T19:38:49.096Z,23.58
2024-05-09T19:43:51.682Z,22.60
2024-05-09T19:48:54.504Z,22.13
2024-05-09T19:53:57.254Z,24.35
2024-05-09T19:58:59.732Z,20.55
2024-05-09T20:04:02.713Z,19.70
2024-05-09T20:09:06.447Z,23.02
2024-05-09T20:14:09.160Z,28.33
2024-05-09T20:19:11.815Z,21.90
2024-05-09T20:24:14.691Z,28.77
2024-05-09T20:29:17.210Z,25.88
2024-05-09T20:34:19.792Z,22.55
2024-05-09T20:39:26.348Z,24.90
2024-05-09T20:44:28.876Z,31.95
2024-05-09T20:49:31.512Z,25.77
2024-05-09T20:54:34.213Z,29.77
2024-05-09T20:59:38.296Z,25.92
2024-05-09T21:04:42.001Z,26.30
2024-05-09T21:09:44.800Z,17.88
2024-05-09T21:14:47.335Z,20.20
2024-05-09T21:19:51.142Z,24.48
2024-05-09T21:24:53.879Z,26.67
2024-05-09T21:29:56.399Z,21.83
2024-05-09T21:34:58.993Z,23.05
2024-05-09T21:40:06.950Z,18.60
2024-05-09T21:45:11.724Z,19.45
2024-05-09T21:50:22.307Z,12.48
2024-05-09T21:55:30.507Z,15.63
2024-05-09T22:00:37.719Z,19.05
2024-05-09T22:05:44.401Z,14.48
2024-05-09T22:10:51.547Z,16.30
2024-05-09T22:15:54.389Z,15.60
2024-05-09T22:20:56.963Z,17.33
2024-05-09T22:25:59.452Z,16.70
2024-05-09T22:31:02.100Z,14.95
2024-05-09T22:36:07.676Z,13.45
2024-05-09T22:41:10.294Z,21.33
2024-05-09T22:46:13.114Z,12.43
2024-05-09T22:51:16.007Z,14.82
2024-05-09T22:56:27.122Z,11.82
2024-05-09T23:01:29.826Z,15.57
2024-05-09T23:06:32.587Z,16.88
2024-05-09T23:11:35.138Z,14.68
2024-05-09T23:16:38.021Z,13.65
2024-05-09T23:21:41.195Z,15.95
2024-05-09T23:26:44.085Z,16.60
2024-05-09T23:31:46.809Z,20.13
2024-05-09T23:36:49.432Z,10.32
2024-05-09T23:41:51.969Z,8.13
2024-05-09T23:46:54.588Z,14.00
2024-05-09T23:51:57.277Z,8.10
2024-05-09T23:57:00.056Z,6.25
